sensor_id;sensor_type;location;lat;lon;timestamp;P1;durP1;ratioP1;P2;durP2;ratioP2
83330;SDS011;73256;50.882;5.984;2023-12-20T00:00:35;17.92;;;11.45;;
83330;SDS011;73256;50.882;5.984;2023-12-20T00:03:02;18.35;;;10.55;;
83330;SDS011;73256;50.882;5.984;2023-12-20T00:05:30;19.08;;;10.90;;
83330;SDS011;73256;50.882;5.984;2023-12-20T00:08:05;19.30;;;10.73;;
83330;SDS011;73256;50.882;5.984;2023-12-20T00:10:31;19.50;;;10.93;;
83330;SDS011;73256;50.882;5.984;2023-12-20T00:12:57;17.50;;;10.77;;
83330;SDS011;73256;50.882;5.984;2023-12-20T00:15:23;17.93;;;10.93;;
83330;SDS011;73256;50.882;5.984;2023-12-20T00:17:52;17.10;;;9.95;;
83330;SDS011;73256;50.882;5.984;2023-12-20T00:20:18;18.42;;;10.48;;
83330;SDS011;73256;50.882;5.984;2023-12-20T00:22:48;19.87;;;10.07;;
83330;SDS011;73256;50.882;5.984;2023-12-20T00:25:18;18.35;;;9.35;;
83330;SDS011;73256;50.882;5.984;2023-12-20T00:27:44;15.18;;;9.10;;
83330;SDS011;73256;50.882;5.984;2023-12-20T00:30:10;16.13;;;8.73;;
83330;SDS011;73256;50.882;5.984;2023-12-20T00:32:37;17.13;;;9.95;;
83330;SDS011;73256;50.882;5.984;2023-12-20T00:35:03;15.82;;;8.43;;
83330;SDS011;73256;50.882;5.984;2023-12-20T00:37:34;14.80;;;8.77;;
83330;SDS011;73256;50.882;5.984;2023-12-20T00:40:20;13.83;;;8.00;;
83330;SDS011;73256;50.882;5.984;2023-12-20T00:42:48;17.35;;;8.25;;
83330;SDS011;73256;50.882;5.984;2023-12-20T00:45:13;18.93;;;8.63;;
83330;SDS011;73256;50.882;5.984;2023-12-20T00:47:42;15.50;;;7.70;;
83330;SDS011;73256;50.882;5.984;2023-12-20T00:50:08;10.68;;;6.05;;
83330;SDS011;73256;50.882;5.984;2023-12-20T00:52:43;9.33;;;4.80;;
83330;SDS011;73256;50.882;5.984;2023-12-20T00:55:17;9.52;;;3.20;;
83330;SDS011;73256;50.882;5.984;2023-12-20T00:57:48;8.85;;;3.00;;
83330;SDS011;73256;50.882;5.984;2023-12-20T01:00:15;7.77;;;2.40;;
83330;SDS011;73256;50.882;5.984;2023-12-20T01:02:42;10.57;;;2.05;;
83330;SDS011;73256;50.882;5.984;2023-12-20T01:05:18;7.28;;;1.77;;
83330;SDS011;73256;50.882;5.984;2023-12-20T01:07:44;8.45;;;2.05;;
83330;SDS011;73256;50.882;5.984;2023-12-20T01:10:10;9.37;;;1.80;;
83330;SDS011;73256;50.882;5.984;2023-12-20T01:13:00;7.10;;;2.42;;
83330;SDS011;73256;50.882;5.984;2023-12-20T01:15:26;6.35;;;1.90;;
83330;SDS011;73256;50.882;5.984;2023-12-20T01:17:54;5.57;;;2.07;;
83330;SDS011;73256;50.882;5.984;2023-12-20T01:20:24;9.80;;;2.10;;
83330;SDS011;73256;50.882;5.984;2023-12-20T01:22:50;10.60;;;2.35;;
83330;SDS011;73256;50.882;5.984;2023-12-20T01:25:16;7.50;;;1.98;;
83330;SDS011;73256;50.882;5.984;2023-12-20T01:27:44;7.63;;;2.50;;
83330;SDS011;73256;50.882;5.984;2023-12-20T01:30:10;7.73;;;2.27;;
83330;SDS011;73256;50.882;5.984;2023-12-20T01:32:43;6.22;;;2.10;;
83330;SDS011;73256;50.882;5.984;2023-12-20T01:35:12;8.77;;;2.58;;
83330;SDS011;73256;50.882;5.984;2023-12-20T01:37:43;8.50;;;2.30;;
83330;SDS011;73256;50.882;5.984;2023-12-20T01:40:09;7.63;;;2.43;;
83330;SDS011;73256;50.882;5.984;2023-12-20T01:42:44;9.63;;;2.53;;
83330;SDS011;73256;50.882;5.984;2023-12-20T01:45:20;9.38;;;2.20;;
83330;SDS011;73256;50.882;5.984;2023-12-20T01:47:46;9.48;;;2.80;;
83330;SDS011;73256;50.882;5.984;2023-12-20T01:50:11;10.00;;;2.47;;
83330;SDS011;73256;50.882;5.984;2023-12-20T01:52:46;8.55;;;2.50;;
83330;SDS011;73256;50.882;5.984;2023-12-20T01:55:15;9.87;;;2.10;;
83330;SDS011;73256;50.882;5.984;2023-12-20T01:57:52;9.25;;;2.20;;
83330;SDS011;73256;50.882;5.984;2023-12-20T02:00:18;9.57;;;2.30;;
83330;SDS011;73256;50.882;5.984;2023-12-20T02:02:48;8.70;;;2.50;;
83330;SDS011;73256;50.882;5.984;2023-12-20T02:05:14;8.03;;;2.60;;
83330;SDS011;73256;50.882;5.984;2023-12-20T02:07:42;9.10;;;2.03;;
83330;SDS011;73256;50.882;5.984;2023-12-20T02:10:14;9.35;;;1.80;;
83330;SDS011;73256;50.882;5.984;2023-12-20T02:12:41;7.68;;;2.17;;
83330;SDS011;73256;50.882;5.984;2023-12-20T02:15:06;9.70;;;1.83;;
83330;SDS011;73256;50.882;5.984;2023-12-20T02:17:32;7.30;;;1.95;;
83330;SDS011;73256;50.882;5.984;2023-12-20T02:20:00;11.53;;;2.10;;
83330;SDS011;73256;50.882;5.984;2023-12-20T02:22:37;9.15;;;1.85;;
83330;SDS011;73256;50.882;5.984;2023-12-20T02:25:12;8.50;;;1.90;;
83330;SDS011;73256;50.882;5.984;2023-12-20T02:27:40;8.48;;;1.90;;
83330;SDS011;73256;50.882;5.984;2023-12-20T02:30:17;8.02;;;2.20;;
83330;SDS011;73256;50.882;5.984;2023-12-20T02:32:53;5.03;;;1.80;;
83330;SDS011;73256;50.882;5.984;2023-12-20T02:35:24;8.32;;;2.40;;
83330;SDS011;73256;50.882;5.984;2023-12-20T02:38:08;10.60;;;2.45;;
83330;SDS011;73256;50.882;5.984;2023-12-20T02:43:27;7.75;;;2.13;;
83330;SDS011;73256;50.882;5.984;2023-12-20T02:46:01;8.80;;;2.13;;
83330;SDS011;73256;50.882;5.984;2023-12-20T02:48:30;10.48;;;2.03;;
83330;SDS011;73256;50.882;5.984;2023-12-20T02:51:08;6.78;;;2.10;;
83330;SDS011;73256;50.882;5.984;2023-12-20T02:53:55;10.10;;;3.00;;
83330;SDS011;73256;50.882;5.984;2023-12-20T02:56:29;9.70;;;2.50;;
83330;SDS011;73256;50.882;5.984;2023-12-20T02:59:01;10.15;;;2.60;;
83330;SDS011;73256;50.882;5.984;2023-12-20T03:01:35;9.18;;;2.15;;
83330;SDS011;73256;50.882;5.984;2023-12-20T03:04:22;11.07;;;3.03;;
83330;SDS011;73256;50.882;5.984;2023-12-20T03:07:16;9.23;;;2.97;;
83330;SDS011;73256;50.882;5.984;2023-12-20T03:09:41;8.00;;;2.53;;
83330;SDS011;73256;50.882;5.984;2023-12-20T03:12:16;10.50;;;2.67;;
83330;SDS011;73256;50.882;5.984;2023-12-20T03:14:43;10.20;;;2.78;;
83330;SDS011;73256;50.882;5.984;2023-12-20T03:17:13;6.55;;;2.30;;
83330;SDS011;73256;50.882;5.984;2023-12-20T03:22:24;10.20;;;2.58;;
83330;SDS011;73256;50.882;5.984;2023-12-20T03:24:52;9.53;;;2.10;;
83330;SDS011;73256;50.882;5.984;2023-12-20T03:27:39;8.38;;;2.80;;
83330;SDS011;73256;50.882;5.984;2023-12-20T03:30:08;10.17;;;2.60;;
83330;SDS011;73256;50.882;5.984;2023-12-20T03:32:41;11.05;;;2.83;;
83330;SDS011;73256;50.882;5.984;2023-12-20T03:35:07;12.48;;;3.00;;
83330;SDS011;73256;50.882;5.984;2023-12-20T03:37:35;10.70;;;2.50;;
83330;SDS011;73256;50.882;5.984;2023-12-20T03:40:02;10.25;;;2.85;;
83330;SDS011;73256;50.882;5.984;2023-12-20T03:45:58;10.55;;;2.88;;
83330;SDS011;73256;50.882;5.984;2023-12-20T03:48:42;9.07;;;2.83;;
83330;SDS011;73256;50.882;5.984;2023-12-20T03:51:18;11.02;;;2.85;;
83330;SDS011;73256;50.882;5.984;2023-12-20T03:53:52;7.90;;;2.33;;
83330;SDS011;73256;50.882;5.984;2023-12-20T03:56:33;8.98;;;2.70;;
83330;SDS011;73256;50.882;5.984;2023-12-20T03:59:06;8.10;;;2.60;;
83330;SDS011;73256;50.882;5.984;2023-12-20T04:01:34;8.27;;;2.25;;
83330;SDS011;73256;50.882;5.984;2023-12-20T04:04:06;9.07;;;2.63;;
83330;SDS011;73256;50.882;5.984;2023-12-20T04:06:32;10.60;;;2.70;;
83330;SDS011;73256;50.882;5.984;2023-12-20T04:09:04;10.73;;;2.90;;
83330;SDS011;73256;50.882;5.984;2023-12-20T04:11:40;8.75;;;2.78;;
83330;SDS011;73256;50.882;5.984;2023-12-20T04:14:22;12.27;;;2.47;;
83330;SDS011;73256;50.882;5.984;2023-12-20T04:17:03;9.50;;;2.17;;
83330;SDS011;73256;50.882;5.984;2023-12-20T04:19:43;10.43;;;2.60;;
83330;SDS011;73256;50.882;5.984;2023-12-20T04:22:16;9.05;;;2.10;;
83330;SDS011;73256;50.882;5.984;2023-12-20T04:25:12;5.90;;;2.35;;
83330;SDS011;73256;50.882;5.984;2023-12-20T04:27:55;14.65;;;2.80;;
83330;SDS011;73256;50.882;5.984;2023-12-20T04:30:37;8.45;;;2.25;;
83330;SDS011;73256;50.882;5.984;2023-12-20T04:33:12;10.27;;;2.42;;
83330;SDS011;73256;50.882;5.984;2023-12-20T04:38:40;11.68;;;2.95;;
83330;SDS011;73256;50.882;5.984;2023-12-20T04:41:08;8.52;;;2.45;;
83330;SDS011;73256;50.882;5.984;2023-12-20T04:43:47;10.57;;;2.37;;
83330;SDS011;73256;50.882;5.984;2023-12-20T04:46:26;9.15;;;2.22;;
83330;SDS011;73256;50.882;5.984;2023-12-20T04:49:19;15.95;;;2.65;;
83330;SDS011;73256;50.882;5.984;2023-12-20T04:51:48;8.38;;;1.80;;
83330;SDS011;73256;50.882;5.984;2023-12-20T04:54:43;11.80;;;2.50;;
83330;SDS011;73256;50.882;5.984;2023-12-20T04:57:11;11.02;;;1.42;;
83330;SDS011;73256;50.882;5.984;2023-12-20T04:59:37;12.00;;;2.22;;
83330;SDS011;73256;50.882;5.984;2023-12-20T05:02:14;10.65;;;1.92;;
83330;SDS011;73256;50.882;5.984;2023-12-20T05:04:49;9.85;;;2.00;;
83330;SDS011;73256;50.882;5.984;2023-12-20T05:07:18;8.90;;;2.27;;
83330;SDS011;73256;50.882;5.984;2023-12-20T05:09:53;10.25;;;2.28;;
83330;SDS011;73256;50.882;5.984;2023-12-20T05:12:28;13.00;;;2.20;;
83330;SDS011;73256;50.882;5.984;2023-12-20T05:15:06;10.93;;;2.20;;
83330;SDS011;73256;50.882;5.984;2023-12-20T05:18:01;11.50;;;2.20;;
83330;SDS011;73256;50.882;5.984;2023-12-20T05:20:32;11.23;;;2.50;;
83330;SDS011;73256;50.882;5.984;2023-12-20T05:22:58;9.18;;;2.13;;
83330;SDS011;73256;50.882;5.984;2023-12-20T05:25:23;11.52;;;2.25;;
83330;SDS011;73256;50.882;5.984;2023-12-20T05:27:50;11.60;;;2.27;;
83330;SDS011;73256;50.882;5.984;2023-12-20T05:30:26;8.65;;;2.00;;
83330;SDS011;73256;50.882;5.984;2023-12-20T05:33:20;10.23;;;2.45;;
83330;SDS011;73256;50.882;5.984;2023-12-20T05:35:53;9.93;;;2.35;;
83330;SDS011;73256;50.882;5.984;2023-12-20T05:38:21;11.40;;;3.47;;
83330;SDS011;73256;50.882;5.984;2023-12-20T05:41:00;14.98;;;3.17;;
83330;SDS011;73256;50.882;5.984;2023-12-20T05:43:25;13.38;;;3.58;;
83330;SDS011;73256;50.882;5.984;2023-12-20T05:46:05;14.35;;;2.30;;
83330;SDS011;73256;50.882;5.984;2023-12-20T05:48:50;9.05;;;2.47;;
83330;SDS011;73256;50.882;5.984;2023-12-20T05:51:21;9.60;;;3.17;;
83330;SDS011;73256;50.882;5.984;2023-12-20T05:53:46;15.13;;;2.70;;
83330;SDS011;73256;50.882;5.984;2023-12-20T05:56:20;14.85;;;2.90;;
83330;SDS011;73256;50.882;5.984;2023-12-20T05:58:49;9.95;;;3.05;;
83330;SDS011;73256;50.882;5.984;2023-12-20T06:01:22;12.10;;;2.97;;
83330;SDS011;73256;50.882;5.984;2023-12-20T06:03:56;14.02;;;3.20;;
83330;SDS011;73256;50.882;5.984;2023-12-20T06:06:54;11.27;;;2.80;;
83330;SDS011;73256;50.882;5.984;2023-12-20T06:09:22;10.82;;;2.97;;
83330;SDS011;73256;50.882;5.984;2023-12-20T06:12:06;9.77;;;3.17;;
83330;SDS011;73256;50.882;5.984;2023-12-20T06:14:37;12.20;;;3.00;;
83330;SDS011;73256;50.882;5.984;2023-12-20T06:17:03;17.40;;;3.25;;
83330;SDS011;73256;50.882;5.984;2023-12-20T06:19:28;13.83;;;3.17;;
83330;SDS011;73256;50.882;5.984;2023-12-20T06:21:54;13.97;;;2.90;;
83330;SDS011;73256;50.882;5.984;2023-12-20T06:24:19;18.90;;;3.77;;
83330;SDS011;73256;50.882;5.984;2023-12-20T06:26:45;8.45;;;2.85;;
83330;SDS011;73256;50.882;5.984;2023-12-20T06:29:10;11.83;;;2.90;;
83330;SDS011;73256;50.882;5.984;2023-12-20T06:31:37;9.63;;;2.85;;
83330;SDS011;73256;50.882;5.984;2023-12-20T06:34:02;9.70;;;2.97;;
83330;SDS011;73256;50.882;5.984;2023-12-20T06:36:28;14.18;;;2.97;;
83330;SDS011;73256;50.882;5.984;2023-12-20T06:38:53;9.37;;;2.73;;
83330;SDS011;73256;50.882;5.984;2023-12-20T06:41:20;13.45;;;2.97;;
83330;SDS011;73256;50.882;5.984;2023-12-20T06:43:58;10.10;;;3.10;;
83330;SDS011;73256;50.882;5.984;2023-12-20T06:46:27;9.33;;;3.20;;
83330;SDS011;73256;50.882;5.984;2023-12-20T06:48:53;12.50;;;3.42;;
83330;SDS011;73256;50.882;5.984;2023-12-20T06:51:22;8.95;;;2.95;;
83330;SDS011;73256;50.882;5.984;2023-12-20T06:53:50;15.23;;;3.15;;
83330;SDS011;73256;50.882;5.984;2023-12-20T06:56:19;15.57;;;4.00;;
83330;SDS011;73256;50.882;5.984;2023-12-20T06:58:45;12.17;;;3.60;;
83330;SDS011;73256;50.882;5.984;2023-12-20T07:01:15;13.70;;;3.67;;
83330;SDS011;73256;50.882;5.984;2023-12-20T07:03:43;13.13;;;3.50;;
83330;SDS011;73256;50.882;5.984;2023-12-20T07:06:16;11.25;;;2.60;;
83330;SDS011;73256;50.882;5.984;2023-12-20T07:08:47;10.95;;;3.00;;
83330;SDS011;73256;50.882;5.984;2023-12-20T07:11:16;16.77;;;3.38;;
83330;SDS011;73256;50.882;5.984;2023-12-20T07:13:41;9.27;;;3.33;;
83330;SDS011;73256;50.882;5.984;2023-12-20T07:16:07;14.83;;;3.80;;
83330;SDS011;73256;50.882;5.984;2023-12-20T07:18:32;14.93;;;3.50;;
83330;SDS011;73256;50.882;5.984;2023-12-20T07:20:58;11.07;;;3.53;;
83330;SDS011;73256;50.882;5.984;2023-12-20T07:23:26;15.45;;;3.70;;
83330;SDS011;73256;50.882;5.984;2023-12-20T07:25:52;14.32;;;3.55;;
83330;SDS011;73256;50.882;5.984;2023-12-20T07:28:18;9.17;;;3.13;;
83330;SDS011;73256;50.882;5.984;2023-12-20T07:30:56;12.02;;;3.63;;
83330;SDS011;73256;50.882;5.984;2023-12-20T07:33:22;10.82;;;4.10;;
83330;SDS011;73256;50.882;5.984;2023-12-20T07:35:48;12.80;;;3.50;;
83330;SDS011;73256;50.882;5.984;2023-12-20T07:38:17;12.88;;;3.22;;
83330;SDS011;73256;50.882;5.984;2023-12-20T07:40:50;12.98;;;3.67;;
83330;SDS011;73256;50.882;5.984;2023-12-20T07:43:17;12.17;;;3.33;;
83330;SDS011;73256;50.882;5.984;2023-12-20T07:45:45;15.18;;;3.03;;
83330;SDS011;73256;50.882;5.984;2023-12-20T07:48:13;11.15;;;3.72;;
83330;SDS011;73256;50.882;5.984;2023-12-20T07:50:41;13.10;;;3.87;;
83330;SDS011;73256;50.882;5.984;2023-12-20T07:53:19;8.52;;;2.95;;
83330;SDS011;73256;50.882;5.984;2023-12-20T07:55:47;8.43;;;3.23;;
83330;SDS011;73256;50.882;5.984;2023-12-20T07:58:23;10.55;;;3.47;;
83330;SDS011;73256;50.882;5.984;2023-12-20T08:00:52;14.73;;;3.92;;
83330;SDS011;73256;50.882;5.984;2023-12-20T08:03:31;9.93;;;3.08;;
83330;SDS011;73256;50.882;5.984;2023-12-20T08:06:10;13.20;;;3.35;;
83330;SDS011;73256;50.882;5.984;2023-12-20T08:08:39;10.65;;;2.83;;
83330;SDS011;73256;50.882;5.984;2023-12-20T08:11:07;12.17;;;3.90;;
83330;SDS011;73256;50.882;5.984;2023-12-20T08:13:49;9.05;;;2.80;;
83330;SDS011;73256;50.882;5.984;2023-12-20T08:16:25;13.88;;;4.30;;
83330;SDS011;73256;50.882;5.984;2023-12-20T08:19:00;19.35;;;4.00;;
83330;SDS011;73256;50.882;5.984;2023-12-20T08:21:43;12.10;;;3.78;;
83330;SDS011;73256;50.882;5.984;2023-12-20T08:24:13;11.83;;;3.20;;
83330;SDS011;73256;50.882;5.984;2023-12-20T08:26:42;11.15;;;2.90;;
83330;SDS011;73256;50.882;5.984;2023-12-20T08:29:18;12.40;;;3.50;;
83330;SDS011;73256;50.882;5.984;2023-12-20T08:31:56;12.87;;;3.97;;
83330;SDS011;73256;50.882;5.984;2023-12-20T08:34:28;10.27;;;3.10;;
83330;SDS011;73256;50.882;5.984;2023-12-20T08:37:05;15.93;;;3.65;;
83330;SDS011;73256;50.882;5.984;2023-12-20T08:39:36;9.88;;;3.47;;
83330;SDS011;73256;50.882;5.984;2023-12-20T08:42:14;16.70;;;3.72;;
83330;SDS011;73256;50.882;5.984;2023-12-20T08:44:43;13.07;;;3.17;;
83330;SDS011;73256;50.882;5.984;2023-12-20T08:47:14;9.93;;;3.05;;
83330;SDS011;73256;50.882;5.984;2023-12-20T08:49:53;8.65;;;2.72;;
83330;SDS011;73256;50.882;5.984;2023-12-20T08:52:36;9.75;;;3.00;;
83330;SDS011;73256;50.882;5.984;2023-12-20T08:55:07;9.18;;;2.85;;
83330;SDS011;73256;50.882;5.984;2023-12-20T08:57:43;12.83;;;3.27;;
83330;SDS011;73256;50.882;5.984;2023-12-20T09:00:31;15.60;;;3.58;;
83330;SDS011;73256;50.882;5.984;2023-12-20T09:02:57;11.17;;;3.10;;
83330;SDS011;73256;50.882;5.984;2023-12-20T09:05:26;14.00;;;3.90;;
83330;SDS011;73256;50.882;5.984;2023-12-20T09:07:51;13.07;;;4.35;;
83330;SDS011;73256;50.882;5.984;2023-12-20T09:10:19;10.88;;;2.70;;
83330;SDS011;73256;50.882;5.984;2023-12-20T09:12:50;14.15;;;3.80;;
83330;SDS011;73256;50.882;5.984;2023-12-20T09:15:17;10.17;;;3.27;;
83330;SDS011;73256;50.882;5.984;2023-12-20T09:17:43;12.57;;;3.22;;
83330;SDS011;73256;50.882;5.984;2023-12-20T09:20:09;12.90;;;3.58;;
83330;SDS011;73256;50.882;5.984;2023-12-20T09:22:35;11.60;;;3.20;;
83330;SDS011;73256;50.882;5.984;2023-12-20T09:25:00;13.98;;;3.47;;
83330;SDS011;73256;50.882;5.984;2023-12-20T09:27:27;12.73;;;3.28;;
83330;SDS011;73256;50.882;5.984;2023-12-20T09:30:02;10.23;;;3.57;;
83330;SDS011;73256;50.882;5.984;2023-12-20T09:32:31;8.95;;;2.80;;
83330;SDS011;73256;50.882;5.984;2023-12-20T09:35:03;11.77;;;3.08;;
83330;SDS011;73256;50.882;5.984;2023-12-20T09:37:31;15.80;;;2.97;;
83330;SDS011;73256;50.882;5.984;2023-12-20T09:39:57;10.30;;;2.90;;
83330;SDS011;73256;50.882;5.984;2023-12-20T09:45:17;10.38;;;2.95;;
83330;SDS011;73256;50.882;5.984;2023-12-20T09:47:45;9.98;;;3.33;;
83330;SDS011;73256;50.882;5.984;2023-12-20T09:50:20;9.48;;;2.80;;
83330;SDS011;73256;50.882;5.984;2023-12-20T09:52:53;11.25;;;3.20;;
83330;SDS011;73256;50.882;5.984;2023-12-20T09:55:21;10.38;;;1.90;;
83330;SDS011;73256;50.882;5.984;2023-12-20T09:57:47;8.75;;;2.65;;
83330;SDS011;73256;50.882;5.984;2023-12-20T10:00:22;10.93;;;2.88;;
83330;SDS011;73256;50.882;5.984;2023-12-20T10:02:52;12.77;;;2.87;;
83330;SDS011;73256;50.882;5.984;2023-12-20T10:05:19;12.23;;;3.20;;
83330;SDS011;73256;50.882;5.984;2023-12-20T10:07:54;10.63;;;2.53;;
83330;SDS011;73256;50.882;5.984;2023-12-20T10:10:28;11.48;;;2.90;;
83330;SDS011;73256;50.882;5.984;2023-12-20T10:13:03;9.57;;;2.70;;
83330;SDS011;73256;50.882;5.984;2023-12-20T10:15:35;10.75;;;2.72;;
83330;SDS011;73256;50.882;5.984;2023-12-20T10:18:04;12.35;;;2.70;;
83330;SDS011;73256;50.882;5.984;2023-12-20T10:20:35;7.57;;;2.65;;
83330;SDS011;73256;50.882;5.984;2023-12-20T10:23:01;10.47;;;2.63;;
83330;SDS011;73256;50.882;5.984;2023-12-20T10:25:27;8.88;;;2.35;;
83330;SDS011;73256;50.882;5.984;2023-12-20T10:28:12;12.27;;;2.70;;
83330;SDS011;73256;50.882;5.984;2023-12-20T10:30:42;9.98;;;2.65;;
83330;SDS011;73256;50.882;5.984;2023-12-20T10:33:09;11.15;;;2.92;;
83330;SDS011;73256;50.882;5.984;2023-12-20T10:35:58;10.10;;;2.65;;
83330;SDS011;73256;50.882;5.984;2023-12-20T10:38:35;11.07;;;2.30;;
83330;SDS011;73256;50.882;5.984;2023-12-20T10:41:03;9.10;;;2.38;;
83330;SDS011;73256;50.882;5.984;2023-12-20T10:43:31;11.75;;;3.08;;
83330;SDS011;73256;50.882;5.984;2023-12-20T10:46:23;8.80;;;2.28;;
83330;SDS011;73256;50.882;5.984;2023-12-20T10:48:56;10.05;;;2.45;;
83330;SDS011;73256;50.882;5.984;2023-12-20T10:51:25;13.17;;;2.27;;
83330;SDS011;73256;50.882;5.984;2023-12-20T10:53:59;12.80;;;2.78;;
83330;SDS011;73256;50.882;5.984;2023-12-20T10:56:29;10.93;;;2.33;;
83330;SDS011;73256;50.882;5.984;2023-12-20T10:59:21;9.15;;;2.90;;
83330;SDS011;73256;50.882;5.984;2023-12-20T11:01:48;10.68;;;2.38;;
83330;SDS011;73256;50.882;5.984;2023-12-20T11:04:15;17.00;;;3.40;;
83330;SDS011;73256;50.882;5.984;2023-12-20T11:06:56;11.02;;;2.83;;
83330;SDS011;73256;50.882;5.984;2023-12-20T11:09:33;12.32;;;3.10;;
83330;SDS011;73256;50.882;5.984;2023-12-20T11:14:47;9.50;;;2.70;;
83330;SDS011;73256;50.882;5.984;2023-12-20T11:17:17;9.13;;;2.90;;
83330;SDS011;73256;50.882;5.984;2023-12-20T11:22:20;9.90;;;2.63;;
83330;SDS011;73256;50.882;5.984;2023-12-20T11:24:48;11.18;;;3.25;;
83330;SDS011;73256;50.882;5.984;2023-12-20T11:27:15;11.15;;;2.58;;
83330;SDS011;73256;50.882;5.984;2023-12-20T11:29:42;14.80;;;2.73;;
83330;SDS011;73256;50.882;5.984;2023-12-20T11:32:28;10.90;;;2.83;;
83330;SDS011;73256;50.882;5.984;2023-12-20T11:37:32;9.95;;;2.55;;
83330;SDS011;73256;50.882;5.984;2023-12-20T11:40:04;11.15;;;2.90;;
83330;SDS011;73256;50.882;5.984;2023-12-20T11:42:38;11.53;;;2.97;;
83330;SDS011;73256;50.882;5.984;2023-12-20T11:45:08;9.40;;;3.00;;
83330;SDS011;73256;50.882;5.984;2023-12-20T11:47:35;11.20;;;3.17;;
83330;SDS011;73256;50.882;5.984;2023-12-20T11:50:23;10.80;;;3.13;;
83330;SDS011;73256;50.882;5.984;2023-12-20T11:52:49;12.35;;;3.55;;
83330;SDS011;73256;50.882;5.984;2023-12-20T11:55:15;11.17;;;3.13;;
83330;SDS011;73256;50.882;5.984;2023-12-20T11:57:41;11.35;;;2.60;;
83330;SDS011;73256;50.882;5.984;2023-12-20T12:00:07;11.68;;;3.33;;
83330;SDS011;73256;50.882;5.984;2023-12-20T12:02:33;11.07;;;2.90;;
83330;SDS011;73256;50.882;5.984;2023-12-20T12:05:01;9.27;;;3.03;;
83330;SDS011;73256;50.882;5.984;2023-12-20T12:07:27;13.93;;;3.25;;
83330;SDS011;73256;50.882;5.984;2023-12-20T12:09:53;10.70;;;2.77;;
83330;SDS011;73256;50.882;5.984;2023-12-20T12:12:19;13.93;;;2.93;;
83330;SDS011;73256;50.882;5.984;2023-12-20T12:14:45;11.68;;;2.88;;
83330;SDS011;73256;50.882;5.984;2023-12-20T12:17:11;10.70;;;2.67;;
83330;SDS011;73256;50.882;5.984;2023-12-20T12:19:38;15.50;;;3.17;;
83330;SDS011;73256;50.882;5.984;2023-12-20T12:22:05;8.55;;;2.35;;
83330;SDS011;73256;50.882;5.984;2023-12-20T12:24:41;10.23;;;2.72;;
83330;SDS011;73256;50.882;5.984;2023-12-20T12:27:11;16.15;;;3.03;;
83330;SDS011;73256;50.882;5.984;2023-12-20T12:29:37;9.57;;;2.40;;
83330;SDS011;73256;50.882;5.984;2023-12-20T12:32:06;10.73;;;2.45;;
83330;SDS011;73256;50.882;5.984;2023-12-20T12:34:32;9.77;;;2.80;;
83330;SDS011;73256;50.882;5.984;2023-12-20T12:36:59;12.20;;;2.97;;
83330;SDS011;73256;50.882;5.984;2023-12-20T12:39:26;12.00;;;2.70;;
83330;SDS011;73256;50.882;5.984;2023-12-20T12:41:52;10.90;;;2.22;;
83330;SDS011;73256;50.882;5.984;2023-12-20T12:44:18;11.65;;;2.75;;
83330;SDS011;73256;50.882;5.984;2023-12-20T12:46:45;8.38;;;2.67;;
83330;SDS011;73256;50.882;5.984;2023-12-20T12:49:13;14.40;;;3.27;;
83330;SDS011;73256;50.882;5.984;2023-12-20T12:51:38;12.80;;;3.33;;
83330;SDS011;73256;50.882;5.984;2023-12-20T12:54:10;13.53;;;2.83;;
83330;SDS011;73256;50.882;5.984;2023-12-20T12:56:38;10.93;;;2.80;;
83330;SDS011;73256;50.882;5.984;2023-12-20T12:59:04;8.80;;;2.83;;
83330;SDS011;73256;50.882;5.984;2023-12-20T13:01:30;10.10;;;2.95;;
83330;SDS011;73256;50.882;5.984;2023-12-20T13:03:57;11.73;;;3.30;;
83330;SDS011;73256;50.882;5.984;2023-12-20T13:06:31;8.30;;;3.00;;
83330;SDS011;73256;50.882;5.984;2023-12-20T13:08:58;10.30;;;2.97;;
83330;SDS011;73256;50.882;5.984;2023-12-20T13:11:27;11.30;;;3.45;;
83330;SDS011;73256;50.882;5.984;2023-12-20T13:13:54;10.13;;;3.30;;
83330;SDS011;73256;50.882;5.984;2023-12-20T13:16:30;9.05;;;2.80;;
83330;SDS011;73256;50.882;5.984;2023-12-20T13:18:56;9.90;;;2.30;;
83330;SDS011;73256;50.882;5.984;2023-12-20T13:21:24;10.25;;;2.67;;
83330;SDS011;73256;50.882;5.984;2023-12-20T13:23:55;11.60;;;2.67;;
83330;SDS011;73256;50.882;5.984;2023-12-20T13:26:20;11.75;;;3.35;;
83330;SDS011;73256;50.882;5.984;2023-12-20T13:28:49;9.60;;;3.17;;
83330;SDS011;73256;50.882;5.984;2023-12-20T13:31:23;9.73;;;2.85;;
83330;SDS011;73256;50.882;5.984;2023-12-20T13:33:49;13.17;;;3.20;;
83330;SDS011;73256;50.882;5.984;2023-12-20T13:36:15;6.82;;;3.15;;
83330;SDS011;73256;50.882;5.984;2023-12-20T13:38:42;9.93;;;2.93;;
83330;SDS011;73256;50.882;5.984;2023-12-20T13:41:08;10.30;;;3.35;;
83330;SDS011;73256;50.882;5.984;2023-12-20T13:43:34;7.73;;;2.67;;
83330;SDS011;73256;50.882;5.984;2023-12-20T13:46:05;13.00;;;3.28;;
83330;SDS011;73256;50.882;5.984;2023-12-20T13:48:30;11.47;;;2.80;;
83330;SDS011;73256;50.882;5.984;2023-12-20T13:50:57;10.10;;;2.87;;
83330;SDS011;73256;50.882;5.984;2023-12-20T13:53:23;7.97;;;2.85;;
83330;SDS011;73256;50.882;5.984;2023-12-20T13:55:48;11.63;;;3.83;;
83330;SDS011;73256;50.882;5.984;2023-12-20T13:58:15;11.32;;;2.83;;
83330;SDS011;73256;50.882;5.984;2023-12-20T14:00:40;11.77;;;3.47;;
83330;SDS011;73256;50.882;5.984;2023-12-20T14:03:06;13.53;;;3.40;;
83330;SDS011;73256;50.882;5.984;2023-12-20T14:05:32;10.55;;;2.95;;
83330;SDS011;73256;50.882;5.984;2023-12-20T14:07:58;12.43;;;3.25;;
83330;SDS011;73256;50.882;5.984;2023-12-20T14:10:25;10.20;;;3.00;;
83330;SDS011;73256;50.882;5.984;2023-12-20T14:12:52;10.35;;;3.08;;
83330;SDS011;73256;50.882;5.984;2023-12-20T14:15:18;14.02;;;3.20;;
83330;SDS011;73256;50.882;5.984;2023-12-20T14:17:45;20.67;;;3.30;;
83330;SDS011;73256;50.882;5.984;2023-12-20T14:20:11;12.90;;;3.03;;
83330;SDS011;73256;50.882;5.984;2023-12-20T14:22:39;10.95;;;3.42;;
83330;SDS011;73256;50.882;5.984;2023-12-20T14:25:25;13.52;;;3.20;;
83330;SDS011;73256;50.882;5.984;2023-12-20T14:27:51;10.27;;;3.40;;
83330;SDS011;73256;50.882;5.984;2023-12-20T14:30:16;12.30;;;2.50;;
83330;SDS011;73256;50.882;5.984;2023-12-20T14:32:44;11.00;;;3.05;;
83330;SDS011;73256;50.882;5.984;2023-12-20T14:35:12;14.13;;;3.43;;
83330;SDS011;73256;50.882;5.984;2023-12-20T14:37:53;8.32;;;2.60;;
83330;SDS011;73256;50.882;5.984;2023-12-20T14:40:25;10.38;;;3.80;;
83330;SDS011;73256;50.882;5.984;2023-12-20T14:49:20;12.33;;;2.83;;
83330;SDS011;73256;50.882;5.984;2023-12-20T14:51:46;8.43;;;3.03;;
83330;SDS011;73256;50.882;5.984;2023-12-20T14:54:15;9.40;;;2.90;;
83330;SDS011;73256;50.882;5.984;2023-12-20T14:56:47;8.47;;;3.37;;
83330;SDS011;73256;50.882;5.984;2023-12-20T14:59:13;13.50;;;3.55;;
83330;SDS011;73256;50.882;5.984;2023-12-20T15:01:39;12.32;;;3.80;;
83330;SDS011;73256;50.882;5.984;2023-12-20T15:04:09;8.80;;;3.30;;
83330;SDS011;73256;50.882;5.984;2023-12-20T15:06:34;10.83;;;3.83;;
83330;SDS011;73256;50.882;5.984;2023-12-20T15:09:11;13.18;;;3.58;;
83330;SDS011;73256;50.882;5.984;2023-12-20T15:11:38;11.70;;;3.45;;
83330;SDS011;73256;50.882;5.984;2023-12-20T15:14:03;8.17;;;3.37;;
83330;SDS011;73256;50.882;5.984;2023-12-20T15:16:31;11.27;;;3.72;;
83330;SDS011;73256;50.882;5.984;2023-12-20T15:18:57;13.33;;;3.83;;
83330;SDS011;73256;50.882;5.984;2023-12-20T15:21:30;10.52;;;3.70;;
83330;SDS011;73256;50.882;5.984;2023-12-20T15:24:05;10.23;;;3.35;;
83330;SDS011;73256;50.882;5.984;2023-12-20T15:26:37;10.45;;;3.35;;
83330;SDS011;73256;50.882;5.984;2023-12-20T15:29:03;9.55;;;3.08;;